Time;durP1;ratioP1;P1;durP2;ratioP2;P2;SDS_P1;SDS_P2;PMS_P1;PMS_P2;Temp;Humidity;BMP_temperature;BMP_pressure;BME280_temperature;BME280_humidity;BME280_pressure;Samples;Min_cycle;Max_cycle;Signal;HPM_P1;HPM_P2
2022/10/05 00:00:27;;;;;;;285.00;19.53;;;8.50;99.90;;;;;;5029467;28;20422;-62
2022/10/05 00:02:54;;;;;;;151.03;16.47;;;8.40;99.90;;;;;;5029316;28;20501;-62
2022/10/05 00:05:32;;;;;;;60.47;12.20;;;8.40;99.90;;;;;;5029623;28;20204;-62
2022/10/05 00:08:23;;;;;;;62.23;11.47;;;8.30;99.90;;;;;;5030765;28;20410;-62
2022/10/05 00:10:50;;;;;;;66.57;10.53;;;8.30;99.90;;;;;;5034876;28;20407;-63
2022/10/05 00:13:26;;;;;;;30.43;8.83;;;8.30;99.90;;;;;;5004254;28;20518;-63
2022/10/05 00:16:16;;;;;;;142.87;13.00;;;8.20;99.90;;;;;;5038082;28;20473;-62
2022/10/05 00:18:45;;;;;;;55.60;8.63;;;8.30;99.90;;;;;;5046181;28;20444;-63
2022/10/05 00:21:23;;;;;;;11.07;7.00;;;8.20;99.90;;;;;;5037024;28;20964;-62
2022/10/05 00:23:49;;;;;;;11.10;7.83;;;8.20;99.90;;;;;;5033012;28;20497;-61
2022/10/05 00:26:24;;;;;;;19.33;8.00;;;8.30;99.90;;;;;;5014488;28;20450;-62
2022/10/05 00:28:51;;;;;;;38.17;8.80;;;8.30;99.90;;;;;;5027068;28;20465;-62
2022/10/05 00:31:22;;;;;;;32.33;7.63;;;8.30;99.90;;;;;;5028354;28;20434;-63
2022/10/05 00:33:48;;;;;;;66.10;10.37;;;8.30;99.90;;;;;;5030213;28;20436;-62
2022/10/05 00:36:14;;;;;;;62.20;10.70;;;8.30;99.90;;;;;;5028680;28;20467;-63
2022/10/05 00:38:40;;;;;;;34.70;9.23;;;8.30;99.90;;;;;;5031961;28;20180;-62
2022/10/05 00:41:20;;;;;;;64.80;9.23;;;8.20;99.90;;;;;;5030319;28;20179;-62
2022/10/05 00:44:22;;;;;;;23.23;9.60;;;8.20;99.90;;;;;;5027525;28;20518;-62
2022/10/05 00:46:57;;;;;;;42.50;10.50;;;8.20;99.90;;;;;;5026012;28;20434;-62
2022/10/05 00:49:41;;;;;;;28.57;10.47;;;8.20;99.90;;;;;;5029333;28;20440;-63
2022/10/05 00:52:22;;;;;;;45.27;11.50;;;8.20;99.90;;;;;;5034182;28;20456;-63
2022/10/05 00:55:12;;;;;;;177.30;14.03;;;8.20;99.90;;;;;;5031011;28;20469;-62
2022/10/05 00:58:08;;;;;;;78.33;10.60;;;8.10;99.90;;;;;;5029319;28;20473;-62
2022/10/05 01:00:54;;;;;;;32.30;9.27;;;8.00;99.90;;;;;;5030072;28;20485;-62
2022/10/05 01:03:28;;;;;;;98.57;10.57;;;7.90;99.90;;;;;;5024659;28;20437;-63
2022/10/05 01:06:16;;;;;;;45.37;8.83;;;7.90;99.90;;;;;;5021978;28;20436;-63
2022/10/05 01:09:10;;;;;;;39.60;10.23;;;7.90;99.90;;;;;;5028654;28;20458;-62
2022/10/05 01:12:00;;;;;;;38.63;8.70;;;7.90;99.90;;;;;;5027781;28;20434;-62
2022/10/05 01:14:33;;;;;;;29.27;10.20;;;7.90;99.90;;;;;;5022538;28;20445;-63
2022/10/05 01:17:11;;;;;;;31.87;10.50;;;7.90;99.90;;;;;;5025789;28;20549;-62
2022/10/05 01:20:04;;;;;;;61.53;11.27;;;7.90;99.90;;;;;;5031418;28;20437;-62
2022/10/05 01:23:00;;;;;;;45.47;12.70;;;7.90;99.90;;;;;;5029434;28;20470;-62
2022/10/05 01:25:49;;;;;;;29.07;10.97;;;7.80;99.90;;;;;;5028209;28;20464;-62
2022/10/05 01:28:33;;;;;;;113.23;14.70;;;7.80;99.90;;;;;;4998511;28;20443;-62
2022/10/05 01:31:20;;;;;;;125.40;15.13;;;7.80;99.90;;;;;;5026449;28;20438;-62
2022/10/05 01:33:57;;;;;;;29.47;11.67;;;7.80;99.90;;;;;;5017444;28;20434;-62
2022/10/05 01:36:39;;;;;;;28.53;11.60;;;7.70;99.90;;;;;;5031615;28;20473;-63
2022/10/05 01:39:11;;;;;;;31.10;8.87;;;7.70;99.90;;;;;;5031754;28;20431;-62
2022/10/05 01:41:53;;;;;;;57.63;11.47;;;7.70;99.90;;;;;;5030888;28;20462;-61
2022/10/05 01:44:38;;;;;;;11.63;6.70;;;7.70;99.90;;;;;;5028905;28;20415;-62
2022/10/05 01:47:15;;;;;;;15.23;6.60;;;7.70;99.90;;;;;;5052632;28;20405;-62
2022/10/05 01:49:53;;;;;;;27.10;6.70;;;7.70;99.90;;;;;;5040603;28;20472;-62
2022/10/05 01:52:55;;;;;;;11.80;5.80;;;7.80;99.90;;;;;;5023327;28;20419;-62
2022/10/05 01:55:32;;;;;;;21.80;5.70;;;7.70;99.90;;;;;;5027748;28;21262;-62
2022/10/05 01:58:30;;;;;;;21.57;6.00;;;7.70;99.90;;;;;;5024332;28;20442;-63
2022/10/05 02:01:06;;;;;;;11.90;5.57;;;7.70;99.90;;;;;;4996247;28;20961;-62
2022/10/05 02:03:55;;;;;;;11.50;5.87;;;7.60;99.90;;;;;;5049086;28;20405;-63
2022/10/05 02:06:29;;;;;;;9.67;6.00;;;7.60;99.90;;;;;;5022228;28;20455;-62
2022/10/05 02:09:27;;;;;;;9.83;5.47;;;7.60;99.90;;;;;;5028884;28;20492;-63
2022/10/05 02:12:06;;;;;;;22.50;6.43;;;7.60;99.90;;;;;;5018836;28;20442;-63
2022/10/05 02:14:56;;;;;;;8.27;5.20;;;7.60;99.90;;;;;;5024453;28;20430;-63
2022/10/05 02:17:28;;;;;;;8.90;5.73;;;7.60;99.90;;;;;;5023328;28;20432;-63
2022/10/05 02:20:00;;;;;;;12.07;5.90;;;7.60;99.90;;;;;;5028510;28;20504;-62
2022/10/05 02:23:04;;;;;;;18.03;5.90;;;7.60;99.90;;;;;;5022398;28;20446;-62
2022/10/05 02:25:34;;;;;;;31.30;10.37;;;7.50;99.90;;;;;;4986354;28;20867;-63
2022/10/05 02:28:03;;;;;;;87.20;11.20;;;7.50;99.90;;;;;;5021748;28;20466;-62
2022/10/05 02:30:32;;;;;;;33.40;10.37;;;7.50;99.90;;;;;;5027580;28;20963;-63
2022/10/05 02:33:07;;;;;;;32.03;9.00;;;7.50;99.90;;;;;;5025329;28;20433;-62
2022/10/05 02:35:33;;;;;;;20.47;7.17;;;7.40;99.90;;;;;;5029528;28;21006;-62
2022/10/05 02:38:26;;;;;;;26.63;6.97;;;7.40;99.90;;;;;;5023914;28;20445;-62
2022/10/05 02:41:21;;;;;;;23.70;7.37;;;7.40;99.90;;;;;;5027638;28;20462;-62
2022/10/05 02:44:09;;;;;;;15.60;5.03;;;7.40;99.90;;;;;;4995035;28;20426;-62
2022/10/05 02:47:01;;;;;;;18.23;7.20;;;7.40;99.90;;;;;;5022830;28;20546;-63
2022/10/05 02:49:59;;;;;;;41.80;9.40;;;7.40;99.90;;;;;;5029336;28;21183;-62
2022/10/05 02:53:01;;;;;;;27.53;10.87;;;7.40;99.90;;;;;;5040828;28;20427;-62
2022/10/05 02:55:40;;;;;;;32.27;10.10;;;7.30;99.90;;;;;;5042245;28;20464;-62
2022/10/05 02:58:13;;;;;;;16.20;6.97;;;7.30;99.90;;;;;;5031335;28;20520;-62
2022/10/05 03:01:01;;;;;;;9.30;6.17;;;7.30;99.90;;;;;;5020706;28;20458;-62
2022/10/05 03:03:40;;;;;;;10.67;5.47;;;7.30;99.90;;;;;;5014138;28;20411;-62
2022/10/05 03:06:20;;;;;;;12.30;5.43;;;7.30;99.90;;;;;;5027492;28;20438;-63
2022/10/05 03:09:07;;;;;;;7.67;4.50;;;7.30;99.90;;;;;;5026409;28;20519;-62
2022/10/05 03:11:42;;;;;;;17.60;5.20;;;7.30;99.90;;;;;;5010463;28;20486;-62
2022/10/05 03:14:24;;;;;;;9.93;4.60;;;7.20;99.90;;;;;;5035278;28;20453;-62
2022/10/05 03:16:59;;;;;;;7.07;4.70;;;7.20;99.90;;;;;;5016290;28;20561;-62
2022/10/05 03:19:30;;;;;;;8.73;4.47;;;7.20;99.90;;;;;;5030320;28;20459;-62
2022/10/05 03:22:07;;;;;;;20.77;4.33;;;7.20;99.90;;;;;;5022740;28;20849;-62
2022/10/05 03:24:37;;;;;;;9.53;4.80;;;7.20;99.90;;;;;;5024906;28;20558;-62
2022/10/05 03:27:17;;;;;;;5.13;4.23;;;7.10;99.90;;;;;;5022251;28;20505;-62
2022/10/05 03:30:15;;;;;;;6.23;4.33;;;7.10;99.90;;;;;;5013752;28;20465;-62
2022/10/05 03:33:19;;;;;;;6.03;4.50;;;7.10;99.90;;;;;;5028907;28;20438;-62
2022/10/05 03:36:08;;;;;;;21.13;5.20;;;7.10;99.90;;;;;;5020379;28;20465;-62
2022/10/05 03:38:47;;;;;;;10.87;5.50;;;7.10;99.90;;;;;;5024035;28;20785;-62
2022/10/05 03:41:16;;;;;;;15.20;5.77;;;7.10;99.90;;;;;;5023868;28;20466;-63
2022/10/05 03:43:53;;;;;;;18.50;6.30;;;7.10;99.90;;;;;;5019326;28;21096;-62
2022/10/05 03:46:43;;;;;;;21.00;7.00;;;7.10;99.90;;;;;;5026464;28;21177;-62
2022/10/05 03:49:09;;;;;;;25.03;7.47;;;7.10;99.90;;;;;;5024070;28;20430;-63
2022/10/05 03:51:38;;;;;;;18.93;7.00;;;7.00;99.90;;;;;;5018656;28;20488;-62
2022/10/05 03:54:22;;;;;;;24.10;6.40;;;7.00;99.90;;;;;;5017791;28;20177;-62
2022/10/05 03:57:04;;;;;;;22.13;6.80;;;7.00;99.90;;;;;;5023181;28;20439;-62
2022/10/05 03:59:49;;;;;;;25.13;7.63;;;7.00;99.90;;;;;;5025967;28;21031;-62
2022/10/05 04:02:28;;;;;;;28.30;9.30;;;7.00;99.90;;;;;;5022007;28;20442;-62
2022/10/05 04:05:09;;;;;;;32.67;9.57;;;7.00;99.90;;;;;;5019936;28;20450;-62
2022/10/05 04:08:11;;;;;;;22.10;8.27;;;7.00;99.90;;;;;;5008640;28;20434;-62
2022/10/05 04:10:43;;;;;;;38.73;9.07;;;7.00;99.90;;;;;;5022105;28;20463;-65
2022/10/05 04:13:15;;;;;;;48.67;9.23;;;7.00;99.90;;;;;;5026864;28;20465;-63
2022/10/05 04:15:49;;;;;;;51.53;8.50;;;7.00;99.90;;;;;;5024066;28;21152;-63
2022/10/05 04:18:24;;;;;;;68.47;8.60;;;7.00;99.90;;;;;;5022254;28;20426;-64
2022/10/05 04:20:55;;;;;;;89.33;10.37;;;7.00;99.90;;;;;;5012423;28;20454;-64
2022/10/05 04:24:02;;;;;;;37.43;7.87;;;7.00;99.90;;;;;;5017432;28;20968;-64
2022/10/05 04:26:46;;;;;;;66.33;10.40;;;6.90;99.90;;;;;;5007022;28;20910;-61
2022/10/05 04:29:18;;;;;;;116.73;12.93;;;6.90;99.90;;;;;;5020826;28;20423;-63
2022/10/05 04:32:21;;;;;;;48.63;10.13;;;6.80;99.90;;;;;;5019119;28;20450;-63
2022/10/05 04:35:25;;;;;;;66.03;12.40;;;6.80;99.90;;;;;;4996936;28;20600;-62
2022/10/05 04:38:20;;;;;;;64.87;11.67;;;6.80;99.90;;;;;;5000538;28;20511;-63
2022/10/05 04:41:10;;;;;;;108.70;14.27;;;6.80;99.90;;;;;;5016887;28;20441;-62
2022/10/05 04:44:23;;;;;;;122.77;15.97;;;6.80;99.90;;;;;;5016673;28;20477;-63
2022/10/05 04:47:26;;;;;;;82.70;14.40;;;6.80;99.90;;;;;;5006956;28;20510;-62
2022/10/05 04:50:03;;;;;;;79.17;10.83;;;6.70;99.90;;;;;;5015660;28;20426;-62
2022/10/05 04:52:31;;;;;;;50.23;11.30;;;6.70;99.90;;;;;;5018280;28;21068;-62
2022/10/05 04:55:10;;;;;;;86.53;11.63;;;6.60;99.90;;;;;;5002185;28;20466;-63
2022/10/05 04:58:11;;;;;;;23.60;9.00;;;6.60;99.90;;;;;;5027395;28;20435;-62
2022/10/05 05:00:51;;;;;;;91.90;12.43;;;6.60;99.90;;;;;;5018581;28;21342;-63
2022/10/05 05:03:25;;;;;;;63.23;11.07;;;6.60;99.90;;;;;;5022967;28;20478;-63
2022/10/05 05:06:42;;;;;;;71.40;10.57;;;6.60;99.90;;;;;;5031498;28;20446;-63
2022/10/05 05:09:19;;;;;;;62.67;9.73;;;6.60;99.90;;;;;;4967789;28;20435;-63
2022/10/05 05:12:26;;;;;;;33.03;10.23;;;6.60;99.90;;;;;;5011357;28;20426;-61
2022/10/05 05:15:16;;;;;;;46.43;10.37;;;6.60;99.90;;;;;;5020367;28;20480;-64
2022/10/05 05:18:01;;;;;;;77.90;13.17;;;6.60;99.90;;;;;;5027940;28;20441;-62
2022/10/05 05:20:29;;;;;;;66.47;14.30;;;6.70;99.90;;;;;;5026449;28;20423;-63
2022/10/05 05:23:09;;;;;;;65.40;13.00;;;6.60;99.90;;;;;;5028181;28;20450;-62
2022/10/05 05:26:07;;;;;;;50.47;11.97;;;6.60;99.90;;;;;;5030936;28;20454;-62
2022/10/05 05:28:45;;;;;;;44.30;10.97;;;6.60;99.90;;;;;;4988945;28;20427;-64
2022/10/05 05:31:16;;;;;;;60.37;12.60;;;6.60;99.90;;;;;;5032374;28;20808;-62
2022/10/05 05:33:42;;;;;;;36.90;11.17;;;6.60;99.90;;;;;;5023810;28;20426;-63
2022/10/05 05:36:28;;;;;;;36.40;11.47;;;6.60;99.90;;;;;;5032168;28;20568;-63
2022/10/05 05:39:06;;;;;;;55.10;13.47;;;6.70;99.90;;;;;;5012320;28;20238;-63
2022/10/05 05:41:36;;;;;;;80.93;13.63;;;6.70;99.90;;;;;;5031864;28;20803;-62
2022/10/05 05:44:12;;;;;;;73.37;11.90;;;6.70;99.90;;;;;;5017763;28;20442;-62
2022/10/05 05:46:46;;;;;;;44.20;12.60;;;6.70;99.90;;;;;;5032539;28;20542;-62
2022/10/05 05:49:17;;;;;;;43.67;11.70;;;6.70;99.90;;;;;;5041472;28;20437;-63
2022/10/05 05:51:54;;;;;;;43.83;12.47;;;6.70;99.90;;;;;;5030565;28;20521;-62
2022/10/05 05:54:43;;;;;;;46.00;11.53;;;6.70;99.90;;;;;;5024924;28;20486;-62
2022/10/05 05:57:11;;;;;;;70.90;13.67;;;6.70;99.90;;;;;;5012810;28;20913;-62
2022/10/05 05:59:53;;;;;;;80.73;12.70;;;6.70;99.90;;;;;;5030257;28;20506;-62
2022/10/05 06:02:27;;;;;;;70.37;15.07;;;6.70;99.90;;;;;;5031630;28;20449;-61
2022/10/05 06:05:27;;;;;;;110.63;14.17;;;6.60;99.90;;;;;;5021074;28;20462;-61
2022/10/05 06:07:55;;;;;;;111.87;16.50;;;6.60;99.90;;;;;;5020372;28;20668;-61
2022/10/05 06:10:32;;;;;;;73.00;14.77;;;6.60;99.90;;;;;;5025048;28;20519;-61
2022/10/05 06:13:03;;;;;;;45.73;14.47;;;6.50;99.90;;;;;;5027980;28;20879;-61
2022/10/05 06:16:04;;;;;;;45.90;14.27;;;6.50;99.90;;;;;;5018985;28;20491;-61
2022/10/05 06:18:32;;;;;;;39.13;12.40;;;6.60;99.90;;;;;;5037834;28;20432;-61
2022/10/05 06:21:03;;;;;;;80.70;15.17;;;6.60;99.90;;;;;;5052003;28;20401;-61
2022/10/05 06:23:37;;;;;;;46.50;14.07;;;6.70;99.90;;;;;;5013996;28;20430;-61
2022/10/05 06:26:40;;;;;;;61.57;14.00;;;6.70;99.90;;;;;;5021946;28;20451;-62
2022/10/05 06:29:22;;;;;;;72.73;12.80;;;6.70;99.90;;;;;;5022508;28;20912;-60
2022/10/05 06:32:17;;;;;;;64.30;13.77;;;6.70;99.90;;;;;;5025258;28;20430;-62
2022/10/05 06:35:00;;;;;;;101.03;14.33;;;6.70;99.90;;;;;;5025534;28;20450;-62
2022/10/05 06:38:04;;;;;;;74.47;13.23;;;6.60;99.90;;;;;;5024209;28;20427;-61
2022/10/05 06:40:48;;;;;;;103.20;14.90;;;6.60;99.90;;;;;;5035423;28;21209;-61
2022/10/05 06:43:32;;;;;;;62.57;12.30;;;6.60;99.90;;;;;;5026622;28;20971;-61
2022/10/05 06:46:10;;;;;;;28.93;11.40;;;6.60;99.90;;;;;;5020671;28;20455;-61
2022/10/05 06:48:38;;;;;;;51.70;13.43;;;6.70;99.90;;;;;;5038893;28;20936;-61
2022/10/05 06:51:24;;;;;;;32.83;11.00;;;6.70;99.90;;;;;;5041574;28;20442;-61
2022/10/05 06:54:06;;;;;;;34.97;10.40;;;6.70;99.90;;;;;;5029964;28;20434;-63
2022/10/05 06:56:49;;;;;;;39.03;11.60;;;6.80;99.90;;;;;;5023446;28;20467;-61
2022/10/05 06:59:21;;;;;;;37.00;10.10;;;6.90;99.90;;;;;;5025773;28;20587;-61
2022/10/05 07:02:23;;;;;;;40.37;10.00;;;6.90;99.90;;;;;;5022372;28;20438;-61
2022/10/05 07:05:01;;;;;;;62.23;11.70;;;7.00;99.90;;;;;;5014728;28;20484;-60
2022/10/05 07:07:33;;;;;;;26.97;10.53;;;7.10;99.90;;;;;;5022859;28;20410;-61
2022/10/05 07:10:23;;;;;;;36.03;11.30;;;7.20;99.90;;;;;;5006879;28;20439;-61
2022/10/05 07:13:04;;;;;;;31.80;9.13;;;7.20;99.90;;;;;;5020340;28;20794;-61
2022/10/05 07:15:52;;;;;;;26.97;9.77;;;7.20;99.90;;;;;;5022651;28;20575;-62
2022/10/05 07:18:46;;;;;;;16.80;8.50;;;7.30;99.90;;;;;;5023863;28;20437;-64
2022/10/05 07:21:38;;;;;;;126.23;13.20;;;7.40;99.90;;;;;;5046149;28;20804;-62
2022/10/05 07:24:04;;;;;;;21.47;9.50;;;7.50;99.90;;;;;;5026714;28;20845;-62
2022/10/05 07:26:40;;;;;;;21.43;10.47;;;7.60;99.90;;;;;;5028309;28;20441;-62
2022/10/05 07:29:05;;;;;;;35.63;13.27;;;7.70;99.90;;;;;;5024407;28;20426;-62
2022/10/05 07:31:31;;;;;;;16.37;10.67;;;7.70;99.90;;;;;;5025744;28;20445;-62
2022/10/05 07:34:03;;;;;;;66.47;11.63;;;7.80;99.90;;;;;;5018284;28;20179;-64
2022/10/05 07:39:26;;;;;;;16.97;9.03;;;7.90;99.90;;;;;;5025188;28;20483;-62
2022/10/05 07:42:17;;;;;;;32.90;9.33;;;7.90;99.90;;;;;;5029540;28;20795;-65
2022/10/05 07:44:52;;;;;;;17.63;9.60;;;8.00;99.90;;;;;;4991188;28;20802;-62
2022/10/05 07:47:32;;;;;;;16.87;10.50;;;8.10;99.90;;;;;;5027185;28;20453;-62
2022/10/05 07:50:05;;;;;;;15.77;10.10;;;8.20;99.90;;;;;;5010905;28;20429;-63
2022/10/05 07:52:44;;;;;;;18.60;9.93;;;8.20;99.90;;;;;;5030082;28;20431;-62
2022/10/05 07:55:48;;;;;;;15.00;9.70;;;8.30;99.90;;;;;;5042037;28;20556;-61
2022/10/05 07:58:19;;;;;;;21.07;10.30;;;8.40;99.90;;;;;;5006673;28;20434;-62
2022/10/05 08:01:05;;;;;;;19.07;10.07;;;8.50;99.90;;;;;;5031864;28;20418;-62
2022/10/05 08:03:45;;;;;;;23.17;11.50;;;8.60;99.90;;;;;;5033045;28;20924;-62
2022/10/05 08:06:27;;;;;;;25.53;13.53;;;8.70;99.90;;;;;;5027315;28;20441;-62
2022/10/05 08:09:06;;;;;;;23.20;11.63;;;8.80;99.90;;;;;;5029902;28;20391;-62
2022/10/05 08:11:50;;;;;;;25.07;12.53;;;8.90;99.90;;;;;;5007183;28;20411;-62
2022/10/05 08:14:23;;;;;;;18.07;11.00;;;9.00;99.90;;;;;;5021661;28;20418;-62
2022/10/05 08:16:53;;;;;;;16.50;11.37;;;9.10;99.90;;;;;;5029863;28;20462;-62
2022/10/05 08:19:39;;;;;;;24.90;11.27;;;9.20;99.90;;;;;;5012166;28;20414;-62
2022/10/05 08:22:12;;;;;;;18.50;11.80;;;9.30;99.90;;;;;;5011525;28;20431;-62
2022/10/05 08:24:59;;;;;;;20.60;10.67;;;9.40;99.90;;;;;;5029675;28;20792;-62
2022/10/05 08:27:49;;;;;;;20.60;10.10;;;9.50;99.90;;;;;;5005264;28;20423;-62
2022/10/05 08:30:15;;;;;;;37.13;12.07;;;9.60;99.90;;;;;;5031328;28;20460;-62
2022/10/05 08:33:02;;;;;;;19.80;11.00;;;9.70;99.90;;;;;;5032601;28;20997;-62
2022/10/05 08:35:48;;;;;;;26.33;10.37;;;9.80;99.90;;;;;;5032822;28;20466;-63
2022/10/05 08:38:21;;;;;;;26.80;11.60;;;9.90;99.90;;;;;;5033861;28;20401;-62
2022/10/05 08:41:24;;;;;;;24.37;11.30;;;10.00;99.90;;;;;;5032791;28;20427;-62
2022/10/05 08:43:59;;;;;;;20.30;10.10;;;10.10;99.90;;;;;;5026289;28;20496;-62
2022/10/05 08:46:43;;;;;;;15.00;10.17;;;10.30;99.90;;;;;;5026661;28;20449;-62
2022/10/05 08:49:33;;;;;;;19.67;10.30;;;10.50;99.90;;;;;;5032958;28;20816;-62
2022/10/05 08:52:25;;;;;;;16.17;10.43;;;10.70;99.90;;;;;;5013469;28;20426;-63
2022/10/05 08:55:08;;;;;;;20.17;11.00;;;10.90;99.90;;;;;;5024581;28;20452;-62
2022/10/05 08:58:10;;;;;;;20.80;11.17;;;11.10;99.90;;;;;;5032680;28;20517;-62
2022/10/05 09:00:41;;;;;;;19.77;11.20;;;11.30;99.90;;;;;;5046810;28;20464;-62
2022/10/05 09:03:33;;;;;;;21.00;11.50;;;11.50;99.90;;;;;;5027198;28;20457;-63
2022/10/05 09:06:13;;;;;;;25.90;11.83;;;11.70;99.90;;;;;;5029729;28;20553;-62
2022/10/05 09:09:07;;;;;;;24.83;11.63;;;11.90;99.90;;;;;;5031610;28;21074;-62
2022/10/05 09:12:17;;;;;;;22.00;12.20;;;12.10;99.90;;;;;;5033332;28;20425;-62
2022/10/05 09:15:10;;;;;;;24.47;11.43;;;12.40;99.90;;;;;;5001918;28;20461;-63
2022/10/05 09:18:07;;;;;;;22.00;11.40;;;12.60;99.90;;;;;;5032772;28;20434;-62
2022/10/05 09:20:56;;;;;;;22.30;12.10;;;12.80;99.90;;;;;;5033647;28;20464;-63
2022/10/05 09:23:42;;;;;;;22.13;9.87;;;13.10;99.90;;;;;;5032571;28;20462;-62
2022/10/05 09:26:45;;;;;;;15.57;8.63;;;13.20;99.90;;;;;;5030839;28;20534;-62
2022/10/05 09:29:26;;;;;;;12.57;7.03;;;13.50;99.90;;;;;;5001496;28;20434;-64
2022/10/05 09:32:14;;;;;;;12.60;6.90;;;13.80;99.90;;;;;;5012763;28;20934;-62
2022/10/05 09:35:24;;;;;;;12.77;7.13;;;14.00;99.90;;;;;;4995532;28;20485;-62
2022/10/05 09:37:58;;;;;;;12.93;6.97;;;14.20;99.90;;;;;;4960669;28;20444;-62
2022/10/05 09:40:30;;;;;;;12.93;7.60;;;14.50;99.90;;;;;;5014044;28;20441;-58
2022/10/05 09:43:17;;;;;;;8.60;6.33;;;14.80;99.90;;;;;;5024523;28;20470;-58
2022/10/05 09:46:00;;;;;;;10.13;7.00;;;15.00;99.90;;;;;;5028574;28;20531;-59
2022/10/05 09:49:03;;;;;;;9.70;6.00;;;15.20;99.90;;;;;;5030727;28;20434;-57
2022/10/05 09:51:59;;;;;;;9.37;4.50;;;15.30;99.90;;;;;;5029822;28;20483;-57
2022/10/05 09:54:50;;;;;;;7.53;5.40;;;15.50;99.90;;;;;;5023262;28;20437;-63
2022/10/05 09:57:33;;;;;;;12.37;5.20;;;15.80;99.90;;;;;;5015766;28;20439;-62
2022/10/05 10:00:19;;;;;;;5.73;3.33;;;16.00;99.90;;;;;;5033539;28;20428;-63
2022/10/05 10:03:04;;;;;;;3.33;3.03;;;16.10;99.90;;;;;;5024935;28;20454;-63
2022/10/05 10:05:33;;;;;;;4.53;3.50;;;16.30;99.90;;;;;;5015326;28;20447;-62
2022/10/05 10:08:08;;;;;;;3.70;3.30;;;16.40;99.90;;;;;;5027255;28;20513;-62
2022/10/05 10:10:42;;;;;;;4.63;3.80;;;16.50;99.90;;;;;;5020741;28;20485;-62
2022/10/05 10:13:14;;;;;;;5.97;3.67;;;16.70;99.90;;;;;;5011855;28;20407;-62
2022/10/05 10:15:53;;;;;;;4.67;3.27;;;16.80;99.90;;;;;;5001393;28;20870;-63
2022/10/05 10:18:44;;;;;;;3.50;3.20;;;16.90;99.90;;;;;;5026583;28;20431;-62
2022/10/05 10:21:35;;;;;;;5.80;3.67;;;17.00;99.90;;;;;;5003617;28;20443;-62
2022/10/05 10:24:32;;;;;;;3.70;3.20;;;17.20;99.90;;;;;;5025573;28;20476;-63
2022/10/05 10:27:19;;;;;;;7.57;3.40;;;17.30;99.90;;;;;;5029842;28;20434;-58
2022/10/05 10:30:17;;;;;;;3.60;3.30;;;17.40;99.90;;;;;;5017379;28;20431;-59
2022/10/05 10:32:46;;;;;;;3.70;3.07;;;17.60;99.90;;;;;;5020415;28;20438;-61
2022/10/05 10:35:28;;;;;;;6.40;3.27;;;17.70;99.90;;;;;;5022456;28;20493;-62
2022/10/05 10:37:59;;;;;;;3.30;3.00;;;17.90;99.90;;;;;;5019865;28;20840;-62
2022/10/05 10:40:34;;;;;;;4.70;3.50;;;18.00;99.90;;;;;;5027989;28;20525;-62
2022/10/05 10:43:15;;;;;;;3.37;3.07;;;18.20;99.90;;;;;;5030056;28;20436;-61
2022/10/05 10:45:46;;;;;;;3.87;3.47;;;18.40;99.90;;;;;;5021973;28;20754;-62
2022/10/05 10:48:18;;;;;;;3.57;3.27;;;18.60;99.20;;;;;;5024811;28;20422;-62
2022/10/05 10:50:58;;;;;;;5.47;3.30;;;18.70;95.60;;;;;;5025689;28;20467;-58
2022/10/05 10:53:45;;;;;;;3.77;3.30;;;18.80;94.90;;;;;;5026880;28;20442;-58
2022/10/05 10:56:16;;;;;;;3.30;3.00;;;18.90;95.20;;;;;;5022759;28;20458;-61
2022/10/05 10:59:00;;;;;;;6.10;3.30;;;19.00;92.40;;;;;;5021587;28;20429;-62
2022/10/05 11:01:56;;;;;;;3.93;3.53;;;19.10;88.90;;;;;;5004260;28;20999;-62
2022/10/05 11:04:30;;;;;;;8.70;3.90;;;19.20;80.90;;;;;;5004847;28;20448;-61
2022/10/05 11:07:17;;;;;;;5.27;3.87;;;19.30;82.40;;;;;;5019309;28;20429;-64
2022/10/05 11:10:20;;;;;;;10.40;6.63;;;19.50;82.50;;;;;;5027019;28;20422;-62
2022/10/05 11:13:10;;;;;;;10.80;6.87;;;19.80;78.00;;;;;;5025122;28;20568;-63
2022/10/05 11:16:13;;;;;;;5.43;4.23;;;19.90;72.80;;;;;;5023026;28;20501;-61
2022/10/05 11:19:17;;;;;;;6.90;5.03;;;20.40;70.90;;;;;;5022762;28;20442;-62
2022/10/05 11:22:15;;;;;;;7.33;4.47;;;20.80;67.50;;;;;;5018684;28;20438;-61
2022/10/05 11:25:19;;;;;;;7.20;4.70;;;21.20;64.00;;;;;;5036788;28;20865;-61
2022/10/05 11:28:18;;;;;;;7.77;4.40;;;21.40;61.70;;;;;;5016875;28;20422;-61
2022/10/05 11:31:08;;;;;;;6.50;4.50;;;21.70;60.50;;;;;;5022801;28;20430;-61
2022/10/05 11:34:15;;;;;;;7.20;4.57;;;21.70;59.60;;;;;;5018736;28;20493;-61
2022/10/05 11:36:53;;;;;;;5.73;4.37;;;21.80;59.80;;;;;;5004501;28;20500;-63
2022/10/05 11:39:42;;;;;;;7.23;5.20;;;22.10;59.70;;;;;;5028698;28;20461;-62
2022/10/05 11:42:29;;;;;;;6.30;4.40;;;22.40;58.40;;;;;;4963088;28;20454;-64
2022/10/05 11:45:24;;;;;;;9.30;4.60;;;22.60;57.40;;;;;;5021734;28;20453;-62
2022/10/05 11:48:30;;;;;;;9.20;5.07;;;22.70;56.70;;;;;;5018621;28;20526;-64
2022/10/05 11:51:13;;;;;;;4.77;4.30;;;22.70;57.40;;;;;;5027819;28;20991;-65
2022/10/05 11:53:52;;;;;;;4.27;3.87;;;22.70;57.00;;;;;;5020869;28;20425;-61
2022/10/05 11:57:03;;;;;;;4.57;4.17;;;22.70;57.70;;;;;;5027247;28;20469;-68
2022/10/05 11:59:51;;;;;;;5.50;4.40;;;22.80;56.90;;;;;;4997430;28;20828;-61
2022/10/05 12:02:36;;;;;;;4.27;3.87;;;22.80;56.70;;;;;;5021227;28;20434;-61
2022/10/05 12:05:10;;;;;;;4.20;3.90;;;22.80;56.30;;;;;;5043742;28;21038;-61
2022/10/05 12:07:59;;;;;;;4.17;3.60;;;22.90;56.60;;;;;;5025490;28;20448;-61
2022/10/05 12:10:27;;;;;;;5.83;4.03;;;23.00;57.90;;;;;;5020980;28;20480;-63
2022/10/05 12:13:19;;;;;;;4.43;3.70;;;23.20;58.50;;;;;;5027735;28;20482;-61
2022/10/05 12:16:19;;;;;;;5.20;3.90;;;23.30;55.30;;;;;;5020514;28;20470;-62
2022/10/05 12:19:03;;;;;;;6.13;3.40;;;23.20;55.00;;;;;;5024001;28;20453;-60
2022/10/05 12:21:53;;;;;;;6.83;4.00;;;23.30;57.00;;;;;;5025525;28;20422;-63
2022/10/05 12:24:23;;;;;;;4.10;3.80;;;23.30;55.10;;;;;;5020584;28;20988;-58
2022/10/05 12:26:56;;;;;;;4.37;3.97;;;23.10;54.80;;;;;;5018346;28;20485;-62
2022/10/05 12:29:48;;;;;;;4.30;3.90;;;22.90;55.00;;;;;;5023274;28;20436;-60
2022/10/05 12:32:17;;;;;;;4.10;3.80;;;22.90;56.30;;;;;;5019907;28;20601;-60
2022/10/05 12:35:07;;;;;;;3.70;3.40;;;23.00;55.70;;;;;;5028450;28;20955;-59
2022/10/05 12:38:09;;;;;;;4.40;3.97;;;23.00;55.90;;;;;;5019141;28;20513;-59
2022/10/05 12:40:41;;;;;;;12.70;4.20;;;23.20;56.70;;;;;;5013649;28;20525;-62
2022/10/05 12:43:25;;;;;;;4.73;3.40;;;23.20;56.20;;;;;;5024813;28;21168;-60
2022/10/05 12:45:59;;;;;;;3.90;3.60;;;23.50;57.10;;;;;;5021687;28;20465;-62
2022/10/05 12:48:38;;;;;;;5.67;4.03;;;23.70;55.60;;;;;;5027283;28;20422;-58
2022/10/05 12:51:28;;;;;;;3.27;2.97;;;23.70;54.90;;;;;;5025736;28;20434;-63
2022/10/05 12:53:59;;;;;;;4.50;3.50;;;23.80;55.80;;;;;;5023144;28;20414;-61
2022/10/05 12:56:48;;;;;;;4.27;3.80;;;23.90;54.60;;;;;;5023891;28;20489;-62
2022/10/05 12:59:34;;;;;;;4.40;3.70;;;23.90;54.00;;;;;;5021566;28;20419;-62
2022/10/05 13:02:26;;;;;;;6.03;3.57;;;23.90;54.60;;;;;;5009120;28;20578;-64
2022/10/05 13:05:10;;;;;;;6.13;4.10;;;23.90;54.20;;;;;;5021192;28;20555;-61
2022/10/05 13:07:38;;;;;;;3.83;3.33;;;23.80;53.80;;;;;;5021441;28;20469;-61
2022/10/05 13:10:23;;;;;;;4.60;3.80;;;23.80;54.70;;;;;;5018325;28;20431;-62
2022/10/05 13:12:52;;;;;;;5.57;3.40;;;23.80;53.90;;;;;;5017991;28;20426;-61
2022/10/05 13:15:37;;;;;;;3.63;3.00;;;23.90;54.60;;;;;;5018162;28;20473;-60
2022/10/05 13:18:27;;;;;;;3.73;3.33;;;24.10;53.40;;;;;;5025809;28;20431;-60
2022/10/05 13:21:26;;;;;;;4.67;3.23;;;24.20;53.10;;;;;;5030994;28;20765;-64
2022/10/05 13:23:52;;;;;;;3.20;2.47;;;24.40;53.10;;;;;;5015482;28;20406;-59
2022/10/05 13:26:45;;;;;;;5.00;2.80;;;24.50;52.60;;;;;;5028233;28;20458;-64
2022/10/05 13:29:48;;;;;;;5.40;3.10;;;24.50;51.30;;;;;;5025812;28;20180;-61
2022/10/05 13:32:29;;;;;;;8.40;3.23;;;24.40;52.10;;;;;;5025174;28;20497;-61
2022/10/05 13:35:34;;;;;;;3.50;3.20;;;24.50;52.10;;;;;;5021165;28;20529;-60
2022/10/05 13:38:18;;;;;;;3.53;2.70;;;24.80;54.00;;;;;;5016708;28;20426;-62
2022/10/05 13:41:02;;;;;;;2.67;2.43;;;24.90;51.80;;;;;;5015034;28;20423;-60
2022/10/05 13:43:37;;;;;;;4.43;3.23;;;25.00;52.50;;;;;;5024849;28;20422;-60
2022/10/05 13:46:27;;;;;;;2.70;2.50;;;25.10;53.00;;;;;;5021773;28;20528;-62
2022/10/05 13:49:00;;;;;;;4.80;3.00;;;25.10;52.00;;;;;;5022385;28;20426;-63
2022/10/05 13:51:50;;;;;;;6.87;2.77;;;25.20;51.70;;;;;;5027325;28;20441;-60
2022/10/05 13:54:29;;;;;;;6.30;3.43;;;25.30;51.30;;;;;;5028130;28;20430;-60
2022/10/05 13:57:26;;;;;;;7.37;2.70;;;25.40;51.80;;;;;;5024798;28;21014;-62
2022/10/05 14:00:21;;;;;;;4.43;3.00;;;25.70;52.30;;;;;;5028325;28;20513;-61
2022/10/05 14:02:50;;;;;;;3.23;2.73;;;25.90;51.00;;;;;;5015981;28;20437;-61
2022/10/05 14:05:21;;;;;;;3.40;2.90;;;25.90;50.40;;;;;;5026491;28;20452;-61